sensor_id;sensor_type;location;lat;lon;timestamp;pressure;altitude;pressure_sealevel;temperature
70969;BMP280;58630;43.022;25.100;2023-03-12T00:00:11;98441.69;;;14.72
70969;BMP280;58630;43.022;25.100;2023-03-12T00:02:36;98431.66;;;14.74
70969;BMP280;58630;43.022;25.100;2023-03-12T00:05:02;98445.69;;;14.61
70969;BMP280;58630;43.022;25.100;2023-03-12T00:07:27;98448.91;;;14.58
70969;BMP280;58630;43.022;25.100;2023-03-12T00:09:52;98445.22;;;14.59
70969;BMP280;58630;43.022;25.100;2023-03-12T00:12:17;98451.66;;;14.53
70969;BMP280;58630;43.022;25.100;2023-03-12T00:14:43;98448.13;;;14.66
70969;BMP280;58630;43.022;25.100;2023-03-12T00:17:08;98445.34;;;14.62
70969;BMP280;58630;43.022;25.100;2023-03-12T00:19:33;98457.81;;;14.57
70969;BMP280;58630;43.022;25.100;2023-03-12T00:21:58;98446.91;;;14.55
70969;BMP280;58630;43.022;25.100;2023-03-12T00:24:24;98459.19;;;14.54
70969;BMP280;58630;43.022;25.100;2023-03-12T00:26:49;98465.66;;;14.57
70969;BMP280;58630;43.022;25.100;2023-03-12T00:29:14;98465.94;;;14.47
70969;BMP280;58630;43.022;25.100;2023-03-12T00:31:39;98455.78;;;14.45
70969;BMP280;58630;43.022;25.100;2023-03-12T00:34:05;98471.63;;;14.49
70969;BMP280;58630;43.022;25.100;2023-03-12T00:36:30;98469.47;;;14.51
70969;BMP280;58630;43.022;25.100;2023-03-12T00:38:57;98483.16;;;14.48
70969;BMP280;58630;43.022;25.100;2023-03-12T00:41:23;98460.13;;;14.50
70969;BMP280;58630;43.022;25.100;2023-03-12T00:43:49;98465.63;;;14.48
70969;BMP280;58630;43.022;25.100;2023-03-12T00:46:14;98464.38;;;14.38
70969;BMP280;58630;43.022;25.100;2023-03-12T00:48:39;98456.06;;;14.36
70969;BMP280;58630;43.022;25.100;2023-03-12T00:51:05;98438.25;;;14.38
70969;BMP280;58630;43.022;25.100;2023-03-12T00:53:30;98473.28;;;14.37
70969;BMP280;58630;43.022;25.100;2023-03-12T00:55:55;98476.38;;;14.39
70969;BMP280;58630;43.022;25.100;2023-03-12T00:58:21;98476.19;;;14.35
70969;BMP280;58630;43.022;25.100;2023-03-12T01:00:46;98464.34;;;14.29
70969;BMP280;58630;43.022;25.100;2023-03-12T01:03:11;98465.59;;;14.32
70969;BMP280;58630;43.022;25.100;2023-03-12T01:05:37;98458.81;;;14.31
70969;BMP280;58630;43.022;25.100;2023-03-12T01:08:04;98460.47;;;14.18
70969;BMP280;58630;43.022;25.100;2023-03-12T01:10:30;98476.00;;;14.15
70969;BMP280;58630;43.022;25.100;2023-03-12T01:12:55;98464.91;;;14.18
70969;BMP280;58630;43.022;25.100;2023-03-12T01:15:20;98461.84;;;14.16
70969;BMP280;58630;43.022;25.100;2023-03-12T01:17:46;98472.28;;;14.16
70969;BMP280;58630;43.022;25.100;2023-03-12T01:20:12;98492.56;;;14.19
70969;BMP280;58630;43.022;25.100;2023-03-12T01:22:37;98477.34;;;14.04
70969;BMP280;58630;43.022;25.100;2023-03-12T01:25:02;98472.56;;;14.06
70969;BMP280;58630;43.022;25.100;2023-03-12T01:27:28;98461.31;;;14.05
70969;BMP280;58630;43.022;25.100;2023-03-12T01:29:53;98474.16;;;14.15
70969;BMP280;58630;43.022;25.100;2023-03-12T01:32:19;98469.06;;;14.10
70969;BMP280;58630;43.022;25.100;2023-03-12T01:34:44;98477.06;;;14.14
70969;BMP280;58630;43.022;25.100;2023-03-12T01:37:10;98476.00;;;14.15
70969;BMP280;58630;43.022;25.100;2023-03-12T01:39:35;98474.72;;;14.12
70969;BMP280;58630;43.022;25.100;2023-03-12T01:42:01;98490.88;;;14.14
70969;BMP280;58630;43.022;25.100;2023-03-12T01:44:26;98495.91;;;14.02
70969;BMP280;58630;43.022;25.100;2023-03-12T01:46:52;98494.03;;;13.94
70969;BMP280;58630;43.022;25.100;2023-03-12T01:49:19;98489.13;;;14.01
70969;BMP280;58630;43.022;25.100;2023-03-12T01:51:50;98485.94;;;14.04
70969;BMP280;58630;43.022;25.100;2023-03-12T01:56:42;98481.44;;;13.96
70969;BMP280;58630;43.022;25.100;2023-03-12T01:59:13;98490.19;;;14.00
70969;BMP280;58630;43.022;25.100;2023-03-12T02:01:39;98494.50;;;13.96
70969;BMP280;58630;43.022;25.100;2023-03-12T02:04:05;98494.34;;;14.01
70969;BMP280;58630;43.022;25.100;2023-03-12T02:06:36;98495.97;;;13.89
70969;BMP280;58630;43.022;25.100;2023-03-12T02:09:02;98496.28;;;13.87
70969;BMP280;58630;43.022;25.100;2023-03-12T02:11:29;98502.09;;;13.84
70969;BMP280;58630;43.022;25.100;2023-03-12T02:13:55;98507.34;;;13.84
70969;BMP280;58630;43.022;25.100;2023-03-12T02:16:20;98513.03;;;13.86
70969;BMP280;58630;43.022;25.100;2023-03-12T02:18:45;98511.94;;;13.87
70969;BMP280;58630;43.022;25.100;2023-03-12T02:21:13;98520.88;;;13.86
70969;BMP280;58630;43.022;25.100;2023-03-12T02:23:42;98520.69;;;13.83
70969;BMP280;58630;43.022;25.100;2023-03-12T02:26:09;98521.75;;;13.82
70969;BMP280;58630;43.022;25.100;2023-03-12T02:28:35;98524.38;;;13.82
70969;BMP280;58630;43.022;25.100;2023-03-12T02:31:06;98528.78;;;13.81
70969;BMP280;58630;43.022;25.100;2023-03-12T02:33:32;98526.78;;;13.78
70969;BMP280;58630;43.022;25.100;2023-03-12T02:35:58;98531.25;;;13.78
70969;BMP280;58630;43.022;25.100;2023-03-12T02:38:34;98547.81;;;13.74
70969;BMP280;58630;43.022;25.100;2023-03-12T02:41:01;98558.25;;;13.74
70969;BMP280;58630;43.022;25.100;2023-03-12T02:43:28;98554.22;;;13.68
70969;BMP280;58630;43.022;25.100;2023-03-12T02:45:53;98559.88;;;13.70
70969;BMP280;58630;43.022;25.100;2023-03-12T02:48:19;98553.56;;;13.62
70969;BMP280;58630;43.022;25.100;2023-03-12T02:50:44;98553.97;;;13.56
70969;BMP280;58630;43.022;25.100;2023-03-12T02:53:09;98553.38;;;13.59
70969;BMP280;58630;43.022;25.100;2023-03-12T02:55:35;98551.75;;;13.63
70969;BMP280;58630;43.022;25.100;2023-03-12T02:58:00;98579.16;;;13.60
70969;BMP280;58630;43.022;25.100;2023-03-12T03:00:25;98573.31;;;13.55
70969;BMP280;58630;43.022;25.100;2023-03-12T03:02:50;98588.91;;;13.46
70969;BMP280;58630;43.022;25.100;2023-03-12T03:05:16;98583.88;;;13.50
70969;BMP280;58630;43.022;25.100;2023-03-12T03:07:41;98576.34;;;13.48
70969;BMP280;58630;43.022;25.100;2023-03-12T03:10:06;98581.25;;;13.50
70969;BMP280;58630;43.022;25.100;2023-03-12T03:12:33;98586.16;;;13.51
70969;BMP280;58630;43.022;25.100;2023-03-12T03:14:58;98590.34;;;13.39
70969;BMP280;58630;43.022;25.100;2023-03-12T03:17:23;98591.41;;;13.38
70969;BMP280;58630;43.022;25.100;2023-03-12T03:19:49;98593.34;;;13.32
70969;BMP280;58630;43.022;25.100;2023-03-12T03:22:15;98604.94;;;13.40
70969;BMP280;58630;43.022;25.100;2023-03-12T03:24:40;98600.31;;;13.37
70969;BMP280;58630;43.022;25.100;2023-03-12T03:27:06;98595.38;;;13.35
70969;BMP280;58630;43.022;25.100;2023-03-12T03:29:31;98610.56;;;13.33
70969;BMP280;58630;43.022;25.100;2023-03-12T03:31:56;98607.69;;;13.35
70969;BMP280;58630;43.022;25.100;2023-03-12T03:34:21;98623.94;;;13.32
70969;BMP280;58630;43.022;25.100;2023-03-12T03:36:47;98631.25;;;13.30
70969;BMP280;58630;43.022;25.100;2023-03-12T03:39:12;98648.13;;;13.32
70969;BMP280;58630;43.022;25.100;2023-03-12T03:41:37;98638.03;;;13.31
70969;BMP280;58630;43.022;25.100;2023-03-12T03:44:02;98642.25;;;13.27
70969;BMP280;58630;43.022;25.100;2023-03-12T03:46:29;98650.28;;;13.17
70969;BMP280;58630;43.022;25.100;2023-03-12T03:48:54;98637.81;;;13.14
70969;BMP280;58630;43.022;25.100;2023-03-12T03:51:19;98639.84;;;13.17
70969;BMP280;58630;43.022;25.100;2023-03-12T03:53:45;98636.97;;;13.18
70969;BMP280;58630;43.022;25.100;2023-03-12T03:56:11;98638.22;;;13.21
70969;BMP280;58630;43.022;25.100;2023-03-12T03:58:37;98647.28;;;13.10
70969;BMP280;58630;43.022;25.100;2023-03-12T04:01:02;98639.19;;;13.12
70969;BMP280;58630;43.022;25.100;2023-03-12T04:03:28;98641.47;;;13.13
70969;BMP280;58630;43.022;25.100;2023-03-12T04:05:57;98656.97;;;13.10
70969;BMP280;58630;43.022;25.100;2023-03-12T04:08:23;98666.03;;;13.12
70969;BMP280;58630;43.022;25.100;2023-03-12T04:10:48;98664.50;;;13.11
70969;BMP280;58630;43.022;25.100;2023-03-12T04:13:14;98662.94;;;13.10
70969;BMP280;58630;43.022;25.100;2023-03-12T04:15:44;98671.81;;;13.09
70969;BMP280;58630;43.022;25.100;2023-03-12T04:18:09;98686.50;;;13.05
70969;BMP280;58630;43.022;25.100;2023-03-12T04:20:35;98673.59;;;13.00
70969;BMP280;58630;43.022;25.100;2023-03-12T04:23:00;98689.81;;;12.97
70969;BMP280;58630;43.022;25.100;2023-03-12T04:25:25;98703.34;;;12.99
70969;BMP280;58630;43.022;25.100;2023-03-12T04:27:50;98691.63;;;12.97
70969;BMP280;58630;43.022;25.100;2023-03-12T04:30:16;98688.50;;;12.95
70969;BMP280;58630;43.022;25.100;2023-03-12T04:32:41;98699.16;;;12.98
70969;BMP280;58630;43.022;25.100;2023-03-12T04:35:06;98702.53;;;12.99
70969;BMP280;58630;43.022;25.100;2023-03-12T04:37:32;98711.72;;;12.96
70969;BMP280;58630;43.022;25.100;2023-03-12T04:39:58;98704.47;;;12.93
70969;BMP280;58630;43.022;25.100;2023-03-12T04:42:23;98707.84;;;12.94
70969;BMP280;58630;43.022;25.100;2023-03-12T04:44:49;98718.56;;;12.92
70969;BMP280;58630;43.022;25.100;2023-03-12T04:47:16;98725.09;;;12.90
70969;BMP280;58630;43.022;25.100;2023-03-12T04:49:41;98721.28;;;12.87
70969;BMP280;58630;43.022;25.100;2023-03-12T04:52:06;98722.31;;;12.86
70969;BMP280;58630;43.022;25.100;2023-03-12T04:54:32;98731.19;;;12.85
70969;BMP280;58630;43.022;25.100;2023-03-12T04:56:57;98739.03;;;12.85
70969;BMP280;58630;43.022;25.100;2023-03-12T04:59:22;98737.47;;;12.84
70969;BMP280;58630;43.022;25.100;2023-03-12T05:01:48;98753.91;;;12.85
70969;BMP280;58630;43.022;25.100;2023-03-12T05:04:13;98741.91;;;12.84
70969;BMP280;58630;43.022;25.100;2023-03-12T05:06:38;98744.78;;;12.82
70969;BMP280;58630;43.022;25.100;2023-03-12T05:09:03;98754.16;;;12.83
70969;BMP280;58630;43.022;25.100;2023-03-12T05:11:29;98752.13;;;12.80
70969;BMP280;58630;43.022;25.100;2023-03-12T05:13:54;98751.13;;;12.76
70969;BMP280;58630;43.022;25.100;2023-03-12T05:16:19;98761.56;;;12.76
70969;BMP280;58630;43.022;25.100;2023-03-12T05:18:45;98750.59;;;12.79
70969;BMP280;58630;43.022;25.100;2023-03-12T05:21:12;98744.38;;;12.75
70969;BMP280;58630;43.022;25.100;2023-03-12T05:23:38;98765.03;;;12.72
70969;BMP280;58630;43.022;25.100;2023-03-12T05:26:04;98748.81;;;12.75
70969;BMP280;58630;43.022;25.100;2023-03-12T05:28:30;98775.19;;;12.73
70969;BMP280;58630;43.022;25.100;2023-03-12T05:30:58;98774.22;;;12.69
70969;BMP280;58630;43.022;25.100;2023-03-12T05:33:24;98790.34;;;12.71
70969;BMP280;58630;43.022;25.100;2023-03-12T05:35:50;98782.78;;;12.70
70969;BMP280;58630;43.022;25.100;2023-03-12T05:38:15;98792.44;;;12.69
70969;BMP280;58630;43.022;25.100;2023-03-12T05:40:41;98796.88;;;12.69
70969;BMP280;58630;43.022;25.100;2023-03-12T05:43:06;98805.28;;;12.66
70969;BMP280;58630;43.022;25.100;2023-03-12T05:45:31;98799.00;;;12.67
70969;BMP280;58630;43.022;25.100;2023-03-12T05:47:57;98799.56;;;12.64
70969;BMP280;58630;43.022;25.100;2023-03-12T05:50:22;98800.34;;;12.64
70969;BMP280;58630;43.022;25.100;2023-03-12T05:52:48;98812.34;;;12.65
70969;BMP280;58630;43.022;25.100;2023-03-12T05:55:13;98807.88;;;12.66
70969;BMP280;58630;43.022;25.100;2023-03-12T05:57:38;98829.53;;;12.66
70969;BMP280;58630;43.022;25.100;2023-03-12T06:00:04;98822.50;;;12.62
70969;BMP280;58630;43.022;25.100;2023-03-12T06:02:29;98827.47;;;12.63
70969;BMP280;58630;43.022;25.100;2023-03-12T06:04:54;98835.28;;;12.63
70969;BMP280;58630;43.022;25.100;2023-03-12T06:07:22;98854.03;;;12.65
70969;BMP280;58630;43.022;25.100;2023-03-12T06:09:47;98865.50;;;12.64
70969;BMP280;58630;43.022;25.100;2023-03-12T06:12:13;98870.97;;;12.63
70969;BMP280;58630;43.022;25.100;2023-03-12T06:14:38;98878.53;;;12.64
70969;BMP280;58630;43.022;25.100;2023-03-12T06:17:03;98851.69;;;12.64
70969;BMP280;58630;43.022;25.100;2023-03-12T06:19:28;98864.72;;;12.64
70969;BMP280;58630;43.022;25.100;2023-03-12T06:21:54;98883.25;;;12.62
70969;BMP280;58630;43.022;25.100;2023-03-12T06:24:19;98882.97;;;12.64
70969;BMP280;58630;43.022;25.100;2023-03-12T06:26:44;98890.53;;;12.65
70969;BMP280;58630;43.022;25.100;2023-03-12T06:29:09;98906.91;;;12.66
70969;BMP280;58630;43.022;25.100;2023-03-12T06:31:35;98911.38;;;12.65
70969;BMP280;58630;43.022;25.100;2023-03-12T06:34:00;98899.38;;;12.64
70969;BMP280;58630;43.022;25.100;2023-03-12T06:36:25;98904.66;;;12.59
70969;BMP280;58630;43.022;25.100;2023-03-12T06:38:50;98914.03;;;12.60
70969;BMP280;58630;43.022;25.100;2023-03-12T06:41:16;98910.13;;;12.58
70969;BMP280;58630;43.022;25.100;2023-03-12T06:43:42;98922.34;;;12.62
70969;BMP280;58630;43.022;25.100;2023-03-12T06:46:08;98920.25;;;12.64
70969;BMP280;58630;43.022;25.100;2023-03-12T06:48:35;98922.06;;;12.64
70969;BMP280;58630;43.022;25.100;2023-03-12T06:51:01;98935.88;;;12.64
70969;BMP280;58630;43.022;25.100;2023-03-12T06:53:27;98942.91;;;12.64
70969;BMP280;58630;43.022;25.100;2023-03-12T06:55:52;98952.28;;;12.65
70969;BMP280;58630;43.022;25.100;2023-03-12T06:58:18;98960.59;;;12.67
70969;BMP280;58630;43.022;25.100;2023-03-12T07:00:43;98962.44;;;12.66
70969;BMP280;58630;43.022;25.100;2023-03-12T07:03:09;98953.56;;;12.67
70969;BMP280;58630;43.022;25.100;2023-03-12T07:05:34;98946.81;;;12.66
70969;BMP280;58630;43.022;25.100;2023-03-12T07:07:59;98958.00;;;12.67
70969;BMP280;58630;43.022;25.100;2023-03-12T07:10:25;98970.25;;;12.66
70969;BMP280;58630;43.022;25.100;2023-03-12T07:12:53;98978.56;;;12.68
70969;BMP280;58630;43.022;25.100;2023-03-12T07:15:18;98987.47;;;12.67
70969;BMP280;58630;43.022;25.100;2023-03-12T07:17:44;98989.75;;;12.69
70969;BMP280;58630;43.022;25.100;2023-03-12T07:20:09;98989.75;;;12.69
70969;BMP280;58630;43.022;25.100;2023-03-12T07:22:35;98992.09;;;12.70
70969;BMP280;58630;43.022;25.100;2023-03-12T07:25:00;99004.63;;;12.68
70969;BMP280;58630;43.022;25.100;2023-03-12T07:27:25;98998.38;;;12.69
70969;BMP280;58630;43.022;25.100;2023-03-12T07:29:50;99010.34;;;12.70
70969;BMP280;58630;43.022;25.100;2023-03-12T07:32:16;99015.56;;;12.70
70969;BMP280;58630;43.022;25.100;2023-03-12T07:34:42;99020.78;;;12.70
70969;BMP280;58630;43.022;25.100;2023-03-12T07:37:07;99030.34;;;12.75
70969;BMP280;58630;43.022;25.100;2023-03-12T07:39:32;99025.91;;;12.75
70969;BMP280;58630;43.022;25.100;2023-03-12T07:41:57;99024.84;;;12.76
70969;BMP280;58630;43.022;25.100;2023-03-12T07:44:23;99025.63;;;12.77
70969;BMP280;58630;43.022;25.100;2023-03-12T07:46:50;99033.19;;;12.78
70969;BMP280;58630;43.022;25.100;2023-03-12T07:49:15;99040.75;;;12.80
70969;BMP280;58630;43.022;25.100;2023-03-12T07:51:40;99040.22;;;12.78
70969;BMP280;58630;43.022;25.100;2023-03-12T07:54:06;99050.38;;;12.79
70969;BMP280;58630;43.022;25.100;2023-03-12T07:56:31;99039.19;;;12.79
70969;BMP280;58630;43.022;25.100;2023-03-12T07:58:56;99045.97;;;12.80
70969;BMP280;58630;43.022;25.100;2023-03-12T08:01:21;99076.44;;;12.79
70969;BMP280;58630;43.022;25.100;2023-03-12T08:03:47;99060.22;;;12.82
70969;BMP280;58630;43.022;25.100;2023-03-12T08:06:12;99055.03;;;12.82
70969;BMP280;58630;43.022;25.100;2023-03-12T08:08:37;99062.59;;;12.84
70969;BMP280;58630;43.022;25.100;2023-03-12T08:11:05;99061.25;;;12.86
70969;BMP280;58630;43.022;25.100;2023-03-12T08:13:31;99045.09;;;12.84
70969;BMP280;58630;43.022;25.100;2023-03-12T08:15:56;99064.16;;;12.85
70969;BMP280;58630;43.022;25.100;2023-03-12T08:18:21;99050.31;;;12.84
70969;BMP280;58630;43.022;25.100;2023-03-12T08:20:50;99061.25;;;12.86
70969;BMP280;58630;43.022;25.100;2023-03-12T08:23:16;99053.72;;;12.85
70969;BMP280;58630;43.022;25.100;2023-03-12T08:25:43;99046.66;;;12.85
70969;BMP280;58630;43.022;25.100;2023-03-12T08:28:08;99038.06;;;12.85
70969;BMP280;58630;43.022;25.100;2023-03-12T08:30:33;99028.91;;;12.87
70969;BMP280;58630;43.022;25.100;2023-03-12T08:32:59;99018.97;;;12.89
70969;BMP280;58630;43.022;25.100;2023-03-12T08:35:24;99009.59;;;12.88
70969;BMP280;58630;43.022;25.100;2023-03-12T08:37:49;98999.16;;;12.88
70969;BMP280;58630;43.022;25.100;2023-03-12T08:40:15;99003.31;;;12.89
70969;BMP280;58630;43.022;25.100;2023-03-12T08:42:40;98994.16;;;12.92
70969;BMP280;58630;43.022;25.100;2023-03-12T08:45:06;98984.22;;;12.94
70969;BMP280;58630;43.022;25.100;2023-03-12T08:47:31;98987.59;;;12.94
70969;BMP280;58630;43.022;25.100;2023-03-12T08:49:57;98976.13;;;12.95
70969;BMP280;58630;43.022;25.100;2023-03-12T08:52:22;98970.91;;;12.95
70969;BMP280;58630;43.022;25.100;2023-03-12T08:54:47;98986.28;;;12.97
70969;BMP280;58630;43.022;25.100;2023-03-12T08:57:13;98987.25;;;13.01
70969;BMP280;58630;43.022;25.100;2023-03-12T08:59:39;99012.03;;;13.03
70969;BMP280;58630;43.022;25.100;2023-03-12T09:02:04;99004.19;;;13.03
70969;BMP280;58630;43.022;25.100;2023-03-12T09:04:30;99001.31;;;13.05
70969;BMP280;58630;43.022;25.100;2023-03-12T09:06:55;99003.34;;;13.08
70969;BMP280;58630;43.022;25.100;2023-03-12T09:09:20;99020.75;;;13.12
70969;BMP280;58630;43.022;25.100;2023-03-12T09:11:45;99033.72;;;13.17
70969;BMP280;58630;43.022;25.100;2023-03-12T09:14:11;99032.88;;;13.21
70969;BMP280;58630;43.022;25.100;2023-03-12T09:16:36;99027.88;;;13.25
70969;BMP280;58630;43.022;25.100;2023-03-12T09:19:01;99045.06;;;13.26
70969;BMP280;58630;43.022;25.100;2023-03-12T09:21:27;99041.91;;;13.29
70969;BMP280;58630;43.022;25.100;2023-03-12T09:23:52;99038.44;;;13.33
70969;BMP280;58630;43.022;25.100;2023-03-12T09:26:17;99055.66;;;13.34
70969;BMP280;58630;43.022;25.100;2023-03-12T09:28:43;99058.00;;;13.36
70969;BMP280;58630;43.022;25.100;2023-03-12T09:31:09;99055.88;;;13.38
70969;BMP280;58630;43.022;25.100;2023-03-12T09:33:34;99066.03;;;13.39
70969;BMP280;58630;43.022;25.100;2023-03-12T09:36:00;99073.06;;;13.39
70969;BMP280;58630;43.022;25.100;2023-03-12T09:38:26;99056.63;;;13.38
70969;BMP280;58630;43.022;25.100;2023-03-12T09:40:52;99063.91;;;13.41
70969;BMP280;58630;43.022;25.100;2023-03-12T09:43:20;99050.06;;;13.41
70969;BMP280;58630;43.022;25.100;2023-03-12T09:45:47;99066.72;;;13.45
70969;BMP280;58630;43.022;25.100;2023-03-12T09:48:13;99071.38;;;13.48
70969;BMP280;58630;43.022;25.100;2023-03-12T09:50:40;99068.19;;;13.51
70969;BMP280;58630;43.022;25.100;2023-03-12T09:55:39;99073.91;;;13.53
70969;BMP280;58630;43.022;25.100;2023-03-12T10:01:17;99070.69;;;13.61
70969;BMP280;58630;43.022;25.100;2023-03-12T10:06:32;99099.84;;;13.68
70969;BMP280;58630;43.022;25.100;2023-03-12T10:14:02;99085.63;;;13.74
70969;BMP280;58630;43.022;25.100;2023-03-12T10:21:43;99118.06;;;13.86
70969;BMP280;58630;43.022;25.100;2023-03-12T10:26:56;99104.44;;;13.89
70969;BMP280;58630;43.022;25.100;2023-03-12T10:29:26;99105.97;;;13.90
70969;BMP280;58630;43.022;25.100;2023-03-12T10:32:03;99091.63;;;13.92
70969;BMP280;58630;43.022;25.100;2023-03-12T10:39:47;99119.94;;;13.99
70969;BMP280;58630;43.022;25.100;2023-03-12T10:42:17;99113.38;;;14.01
70969;BMP280;58630;43.022;25.100;2023-03-12T10:44:42;99103.13;;;14.05
70969;BMP280;58630;43.022;25.100;2023-03-12T10:49:51;99100.22;;;14.06
70969;BMP280;58630;43.022;25.100;2023-03-12T10:52:20;99114.09;;;14.07
70969;BMP280;58630;43.022;25.100;2023-03-12T10:54:47;99115.91;;;14.06
70969;BMP280;58630;43.022;25.100;2023-03-12T10:57:13;99109.63;;;14.07
70969;BMP280;58630;43.022;25.100;2023-03-12T10:59:40;99101.78;;;14.07
70969;BMP280;58630;43.022;25.100;2023-03-12T11:04:52;99088.72;;;14.07
70969;BMP280;58630;43.022;25.100;2023-03-12T11:07:30;99097.16;;;14.04
70969;BMP280;58630;43.022;25.100;2023-03-12T11:12:31;99084.38;;;14.03
70969;BMP280;58630;43.022;25.100;2023-03-12T11:14:57;99089.78;;;14.06
70969;BMP280;58630;43.022;25.100;2023-03-12T11:17:26;99102.75;;;14.11
70969;BMP280;58630;43.022;25.100;2023-03-12T11:19:52;99082.66;;;14.12
70969;BMP280;58630;43.022;25.100;2023-03-12T11:22:28;99074.53;;;14.13
70969;BMP280;58630;43.022;25.100;2023-03-12T11:24:55;99070.25;;;14.17
70969;BMP280;58630;43.022;25.100;2023-03-12T11:27:37;99068.25;;;14.28
70969;BMP280;58630;43.022;25.100;2023-03-12T11:30:05;99061.56;;;14.35
70969;BMP280;58630;43.022;25.100;2023-03-12T11:32:38;99065.38;;;14.42
70969;BMP280;58630;43.022;25.100;2023-03-12T11:35:08;99068.75;;;14.56
70969;BMP280;58630;43.022;25.100;2023-03-12T11:40:20;99060.63;;;14.71
70969;BMP280;58630;43.022;25.100;2023-03-12T11:42:54;99078.59;;;14.86
70969;BMP280;58630;43.022;25.100;2023-03-12T11:48:08;99076.28;;;15.11
70969;BMP280;58630;43.022;25.100;2023-03-12T11:50:49;99070.22;;;15.24
70969;BMP280;58630;43.022;25.100;2023-03-12T11:56:18;99072.63;;;15.56
70969;BMP280;58630;43.022;25.100;2023-03-12T12:03:52;99066.72;;;16.03
70969;BMP280;58630;43.022;25.100;2023-03-12T12:06:32;99066.72;;;15.94
70969;BMP280;58630;43.022;25.100;2023-03-12T12:19:19;99074.91;;;17.54
70969;BMP280;58630;43.022;25.100;2023-03-12T12:24:37;99072.75;;;18.10
70969;BMP280;58630;43.022;25.100;2023-03-12T12:27:23;99064.97;;;18.51
70969;BMP280;58630;43.022;25.100;2023-03-12T12:29:53;99079.97;;;19.00
70969;BMP280;58630;43.022;25.100;2023-03-12T12:40:28;99081.25;;;20.89
70969;BMP280;58630;43.022;25.100;2023-03-12T12:43:00;99091.00;;;21.27
70969;BMP280;58630;43.022;25.100;2023-03-12T12:45:28;99101.09;;;21.53
70969;BMP280;58630;43.022;25.100;2023-03-12T12:47:56;99084.75;;;21.93
70969;BMP280;58630;43.022;25.100;2023-03-12T12:50:23;99090.50;;;22.29
70969;BMP280;58630;43.022;25.100;2023-03-12T12:53:02;99094.31;;;22.32
70969;BMP280;58630;43.022;25.100;2023-03-12T12:55:31;99098.06;;;22.12
70969;BMP280;58630;43.022;25.100;2023-03-12T12:58:04;99101.97;;;21.87
70969;BMP280;58630;43.022;25.100;2023-03-12T13:02:56;99087.31;;;20.89
70969;BMP280;58630;43.022;25.100;2023-03-12T13:05:39;99100.47;;;20.26
70969;BMP280;58630;43.022;25.100;2023-03-12T13:08:05;99109.75;;;19.76
70969;BMP280;58630;43.022;25.100;2023-03-12T13:13:03;99101.59;;;19.05
70969;BMP280;58630;43.022;25.100;2023-03-12T13:15:35;99109.09;;;18.74
70969;BMP280;58630;43.022;25.100;2023-03-12T13:18:08;99118.53;;;18.47
70969;BMP280;58630;43.022;25.100;2023-03-12T13:20:37;99127.13;;;18.27
70969;BMP280;58630;43.022;25.100;2023-03-12T13:30:57;99120.03;;;17.73
70969;BMP280;58630;43.022;25.100;2023-03-12T13:33:35;99132.84;;;17.66
70969;BMP280;58630;43.022;25.100;2023-03-12T13:36:08;99139.94;;;17.57
70969;BMP280;58630;43.022;25.100;2023-03-12T13:38:38;99140.41;;;17.51
70969;BMP280;58630;43.022;25.100;2023-03-12T13:41:28;99138.72;;;17.46
70969;BMP280;58630;43.022;25.100;2023-03-12T13:43:54;99139.97;;;17.41
70969;BMP280;58630;43.022;25.100;2023-03-12T13:46:25;99155.53;;;17.37
70969;BMP280;58630;43.022;25.100;2023-03-12T13:48:51;99147.84;;;17.32
70969;BMP280;58630;43.022;25.100;2023-03-12T13:51:20;99153.53;;;17.26
70969;BMP280;58630;43.022;25.100;2023-03-12T13:53:47;99153.69;;;17.21
70969;BMP280;58630;43.022;25.100;2023-03-12T13:56:14;99149.19;;;17.13
70969;BMP280;58630;43.022;25.100;2023-03-12T13:59:02;99149.34;;;17.08
70969;BMP280;58630;43.022;25.100;2023-03-12T14:01:28;99156.59;;;17.02
70969;BMP280;58630;43.022;25.100;2023-03-12T14:03:55;99161.53;;;16.95
70969;BMP280;58630;43.022;25.100;2023-03-12T14:06:23;99155.34;;;16.91
70969;BMP280;58630;43.022;25.100;2023-03-12T14:08:56;99153.16;;;16.85
70969;BMP280;58630;43.022;25.100;2023-03-12T14:14:24;99157.13;;;16.74
70969;BMP280;58630;43.022;25.100;2023-03-12T14:16:56;99162.50;;;16.69
70969;BMP280;58630;43.022;25.100;2023-03-12T14:19:25;99165.47;;;16.68
70969;BMP280;58630;43.022;25.100;2023-03-12T14:21:50;99155.09;;;16.63
70969;BMP280;58630;43.022;25.100;2023-03-12T14:24:27;99150.44;;;16.60
70969;BMP280;58630;43.022;25.100;2023-03-12T14:26:53;99160.47;;;16.58
70969;BMP280;58630;43.022;25.100;2023-03-12T14:29:20;99162.91;;;16.54
70969;BMP280;58630;43.022;25.100;2023-03-12T14:31:46;99159.38;;;16.50
70969;BMP280;58630;43.022;25.100;2023-03-12T14:34:16;99167.06;;;16.47
70969;BMP280;58630;43.022;25.100;2023-03-12T14:36:46;99169.50;;;16.43
70969;BMP280;58630;43.022;25.100;2023-03-12T14:39:27;99170.38;;;16.39
70969;BMP280;58630;43.022;25.100;2023-03-12T14:42:04;99171.78;;;16.36
70969;BMP280;58630;43.022;25.100;2023-03-12T14:44:30;99163.09;;;16.27
70969;BMP280;58630;43.022;25.100;2023-03-12T14:46:56;99174.16;;;16.24
70969;BMP280;58630;43.022;25.100;2023-03-12T14:49:22;99169.56;;;16.22
70969;BMP280;58630;43.022;25.100;2023-03-12T14:51:47;99178.50;;;16.21
70969;BMP280;58630;43.022;25.100;2023-03-12T14:54:22;99167.81;;;16.17
70969;BMP280;58630;43.022;25.100;2023-03-12T14:56:48;99174.44;;;16.15
70969;BMP280;58630;43.022;25.100;2023-03-12T15:01:45;99177.94;;;16.10
70969;BMP280;58630;43.022;25.100;2023-03-12T15:04:18;99188.25;;;16.07
70969;BMP280;58630;43.022;25.100;2023-03-12T15:06:45;99180.69;;;16.05
70969;BMP280;58630;43.022;25.100;2023-03-12T15:09:15;99190.69;;;16.03
70969;BMP280;58630;43.022;25.100;2023-03-12T15:11:40;99189.44;;;16.01
70969;BMP280;58630;43.022;25.100;2023-03-12T15:14:07;99185.38;;;15.95
70969;BMP280;58630;43.022;25.100;2023-03-12T15:16:33;99193.84;;;15.92
70969;BMP280;58630;43.022;25.100;2023-03-12T15:19:00;99196.28;;;15.88
70969;BMP280;58630;43.022;25.100;2023-03-12T15:21:26;99191.66;;;15.85
70969;BMP280;58630;43.022;25.100;2023-03-12T15:23:51;99204.25;;;15.83